Time;durP1;ratioP1;P1;durP2;ratioP2;P2;SDS_P1;SDS_P2;PMS_P1;PMS_P2;Temp;Humidity;BMP_temperature;BMP_pressure;BME280_temperature;BME280_humidity;BME280_pressure;Samples;Min_cycle;Max_cycle;Signal;HPM_P1;HPM_P2
2021/12/03 00:00:39;;;;;;;0.20;0.10;;;;;;;2.20;100.00;99796.53;5033509;28;20488;-49
2021/12/03 00:03:07;;;;;;;0.20;0.10;;;;;;;1.98;100.00;99793.06;5033308;28;20444;-48
2021/12/03 00:05:34;;;;;;;0.37;0.37;;;;;;;1.83;100.00;99793.09;5032745;28;20822;-48
2021/12/03 00:08:01;;;;;;;0.20;0.10;;;;;;;2.00;100.00;99804.41;5040950;28;20863;-48
2021/12/03 00:10:28;;;;;;;0.20;0.20;;;;;;;2.10;100.00;99809.66;5039373;28;20443;-49
2021/12/03 00:12:56;;;;;;;0.20;0.20;;;;;;;2.06;100.00;99806.16;5052810;28;20454;-49
2021/12/03 00:15:25;;;;;;;0.20;0.10;;;;;;;2.11;100.00;99808.78;5038980;28;21008;-50
2021/12/03 00:17:53;;;;;;;0.20;0.10;;;;;;;2.13;100.00;99801.78;5052668;28;20450;-50
2021/12/03 00:20:22;;;;;;;0.40;0.20;;;;;;;1.99;100.00;99791.31;5052111;28;21077;-50
2021/12/03 00:22:51;;;;;;;0.20;0.10;;;;;;;2.06;100.00;99793.94;5052248;28;20499;-49
2021/12/03 00:25:18;;;;;;;0.20;0.20;;;;;;;2.08;100.00;99801.78;5035130;28;20525;-50
2021/12/03 00:27:45;;;;;;;0.20;0.10;;;;;;;2.08;100.00;99804.41;5042681;28;20466;-49
2021/12/03 00:30:14;;;;;;;0.20;0.10;;;;;;;1.99;100.00;99810.53;5039005;28;20443;-49
2021/12/03 00:32:42;;;;;;;0.20;0.10;;;;;;;1.91;100.00;99808.78;5040981;28;20447;-49
2021/12/03 00:35:13;;;;;;;0.20;0.10;;;;;;;1.76;100.00;99814.91;5045494;28;20456;-49
2021/12/03 00:37:40;;;;;;;0.30;0.30;;;;;;;1.64;100.00;99823.66;5044125;28;20486;-49
2021/12/03 00:40:10;;;;;;;0.20;0.10;;;;;;;1.57;100.00;99834.16;5058041;28;20479;-49
2021/12/03 00:42:39;;;;;;;0.77;0.77;;;;;;;1.53;100.00;99841.16;5046119;28;21014;-50
2021/12/03 00:45:07;;;;;;;0.20;0.10;;;;;;;1.44;100.00;99836.75;5032352;28;20506;-49
2021/12/03 00:47:34;;;;;;;0.20;0.10;;;;;;;1.47;100.00;99844.59;5034547;28;20500;-50
2021/12/03 00:50:01;;;;;;;0.20;0.10;;;;;;;1.55;100.00;99843.75;5045107;28;20817;-50
2021/12/03 00:52:27;;;;;;;0.20;0.20;;;;;;;1.43;100.00;99839.38;5045336;28;20447;-49
2021/12/03 00:54:54;;;;;;;0.20;0.10;;;;;;;1.35;100.00;99841.97;5050017;28;20861;-49
2021/12/03 00:57:21;;;;;;;0.20;0.10;;;;;;;1.24;100.00;99833.25;5040666;28;20470;-49
2021/12/03 00:59:47;;;;;;;0.20;0.10;;;;;;;1.10;100.00;99843.69;5035799;28;20454;-50
2021/12/03 01:02:14;;;;;;;0.27;0.20;;;;;;;1.11;100.00;99834.97;5035599;28;20614;-50
2021/12/03 01:04:41;;;;;;;0.20;0.10;;;;;;;1.04;100.00;99845.41;5035694;28;20874;-50
2021/12/03 01:07:07;;;;;;;0.20;0.10;;;;;;;0.90;100.00;99840.16;5036090;28;20992;-50
2021/12/03 01:09:34;;;;;;;0.20;0.10;;;;;;;0.89;100.00;99841.88;5048052;28;20501;-49
2021/12/03 01:12:01;;;;;;;0.20;0.10;;;;;;;0.92;100.00;99848.00;5048412;28;20962;-49
2021/12/03 01:14:28;;;;;;;0.20;0.10;;;;;;;0.72;100.00;99848.81;5043050;28;20463;-49
2021/12/03 01:16:54;;;;;;;0.20;0.10;;;;;;;0.84;100.00;99848.00;5040718;28;20468;-49
2021/12/03 01:19:21;;;;;;;0.40;0.40;;;;;;;0.72;100.00;99863.63;5044114;28;20498;-49
2021/12/03 01:21:48;;;;;;;0.20;0.20;;;;;;;0.67;100.00;99865.34;5036553;28;20552;-50
2021/12/03 01:24:17;;;;;;;0.20;0.10;;;;;;;0.65;100.00;99854.00;5043545;28;20450;-49
2021/12/03 01:26:45;;;;;;;0.20;0.17;;;;;;;0.56;100.00;99858.34;5041724;28;20464;-49
2021/12/03 01:29:12;;;;;;;0.20;0.20;;;;;;;0.53;100.00;99860.91;5046509;28;20581;-49
2021/12/03 01:31:38;;;;;;;0.20;0.10;;;;;;;0.53;100.00;99866.13;5048426;28;20443;-49
2021/12/03 01:34:05;;;;;;;0.20;0.10;;;;;;;0.40;100.00;99860.84;5043798;28;20451;-49
2021/12/03 01:36:32;;;;;;;0.20;0.10;;;;;;;0.28;100.00;99865.16;5041679;28;21035;-49
2021/12/03 01:38:59;;;;;;;0.20;0.10;;;;;;;0.13;100.00;99866.78;5048364;28;20470;-50
2021/12/03 01:41:27;;;;;;;0.20;0.10;;;;;;;0.40;100.00;99874.78;5068350;28;20523;-49
2021/12/03 01:44:00;;;;;;;0.20;0.20;;;;;;;0.38;100.00;99878.25;5044933;28;20458;-50
2021/12/03 01:46:27;;;;;;;0.20;0.20;;;;;;;0.35;100.00;99879.13;5053388;28;20471;-49
2021/12/03 01:48:53;;;;;;;0.20;0.10;;;;;;;0.40;100.00;99879.13;5053016;28;20447;-49
2021/12/03 01:51:20;;;;;;;0.20;0.20;;;;;;;0.20;100.00;99873.81;5037218;28;20447;-50
2021/12/03 01:53:48;;;;;;;0.20;0.10;;;;;;;0.39;100.00;99882.63;5043613;28;20511;-49
2021/12/03 01:56:16;;;;;;;0.20;0.10;;;;;;;0.45;100.00;99886.16;5048038;28;20518;-50
2021/12/03 01:58:45;;;;;;;0.20;0.10;;;;;;;0.37;100.00;99881.75;5046744;28;20451;-49
2021/12/03 02:01:15;;;;;;;0.20;0.10;;;;;;;0.46;100.00;99884.41;5040849;28;20532;-49
2021/12/03 02:03:44;;;;;;;0.20;0.10;;;;;;;0.42;100.00;99891.38;5041881;28;20531;-49
2021/12/03 02:06:13;;;;;;;0.20;0.10;;;;;;;0.42;100.00;99912.28;5047639;28;20551;-49
2021/12/03 02:08:41;;;;;;;0.20;0.10;;;;;;;0.63;100.00;99906.28;5046933;28;20501;-50
2021/12/03 02:11:10;;;;;;;0.20;0.10;;;;;;;0.83;100.00;99914.25;5041731;28;20997;-49
2021/12/03 02:13:37;;;;;;;0.20;0.10;;;;;;;0.87;100.00;99923.84;5040920;28;20451;-49
2021/12/03 02:16:05;;;;;;;0.20;0.10;;;;;;;1.01;100.00;99922.16;5046586;28;20475;-49
2021/12/03 02:18:32;;;;;;;0.20;0.10;;;;;;;1.24;100.00;99926.63;5048887;28;20486;-51
2021/12/03 02:21:02;;;;;;;0.20;0.10;;;;;;;1.34;100.00;99931.88;5046443;28;21004;-50
2021/12/03 02:23:29;;;;;;;0.20;0.10;;;;;;;1.44;100.00;99931.03;5047716;28;20874;-49
2021/12/03 02:25:57;;;;;;;0.20;0.20;;;;;;;1.42;100.00;99931.91;5042869;28;20471;-49
2021/12/03 02:28:27;;;;;;;0.20;0.10;;;;;;;1.53;100.00;99924.06;5041122;28;20452;-49
2021/12/03 02:30:54;;;;;;;0.20;0.10;;;;;;;1.56;100.00;99926.69;5045053;28;20793;-50
2021/12/03 02:33:21;;;;;;;0.20;0.10;;;;;;;1.54;100.00;99933.69;5048242;28;20447;-50
2021/12/03 02:35:49;;;;;;;0.20;0.10;;;;;;;1.70;100.00;99922.34;5045495;28;21040;-49
2021/12/03 02:38:19;;;;;;;0.20;0.10;;;;;;;1.68;100.00;99929.34;5042257;28;20442;-50
2021/12/03 02:40:47;;;;;;;0.20;0.20;;;;;;;1.61;100.00;99933.66;5068940;28;20521;-50
2021/12/03 02:43:14;;;;;;;0.20;0.10;;;;;;;1.68;100.00;99916.22;5056547;28;20448;-49
2021/12/03 02:45:41;;;;;;;0.20;0.10;;;;;;;1.69;100.00;99916.22;5030780;28;20450;-49
2021/12/03 02:48:08;;;;;;;0.20;0.10;;;;;;;1.65;100.00;99924.09;5053438;28;20446;-50
2021/12/03 02:50:35;;;;;;;0.20;0.10;;;;;;;1.57;100.00;99928.44;5053750;28;20928;-50
2021/12/03 02:53:02;;;;;;;0.20;0.10;;;;;;;1.60;100.00;99933.66;5040017;28;20461;-49
2021/12/03 02:55:29;;;;;;;0.20;0.10;;;;;;;1.33;100.00;99940.59;5041848;28;20868;-49
2021/12/03 02:57:56;;;;;;;0.20;0.10;;;;;;;1.45;100.00;99943.25;5047096;28;20486;-50
2021/12/03 03:00:25;;;;;;;0.20;0.10;;;;;;;1.84;100.00;99940.69;5045428;28;20451;-49
2021/12/03 03:02:52;;;;;;;0.20;0.10;;;;;;;1.66;100.00;99934.56;5039863;28;20526;-49
2021/12/03 03:05:20;;;;;;;0.20;0.10;;;;;;;1.59;100.00;99938.03;5041128;28;20452;-49
2021/12/03 03:07:48;;;;;;;0.20;0.10;;;;;;;1.53;100.00;99945.03;5039344;28;20500;-49
2021/12/03 03:10:19;;;;;;;0.20;0.10;;;;;;;1.35;100.00;99946.69;5040460;28;20451;-49
2021/12/03 03:12:45;;;;;;;0.20;0.10;;;;;;;1.33;100.00;99940.59;5040166;28;20477;-49
2021/12/03 03:15:13;;;;;;;0.20;0.10;;;;;;;1.18;100.00;99936.19;5040021;28;20452;-50
2021/12/03 03:17:40;;;;;;;1.40;1.13;;;;;;;1.14;100.00;99937.06;5045895;28;20977;-49
2021/12/03 03:20:09;;;;;;;0.20;0.10;;;;;;;1.08;100.00;99937.00;5051183;28;20458;-50
2021/12/03 03:22:40;;;;;;;0.20;0.10;;;;;;;1.18;100.00;99930.06;5041370;28;20925;-50
2021/12/03 03:25:14;;;;;;;0.20;0.10;;;;;;;1.15;100.00;99925.72;5039908;28;20865;-49
2021/12/03 03:27:41;;;;;;;0.20;0.10;;;;;;;1.08;100.00;99937.00;5043084;28;20467;-49
2021/12/03 03:30:12;;;;;;;0.20;0.10;;;;;;;1.13;100.00;99937.03;5046365;28;20482;-49
2021/12/03 03:32:40;;;;;;;0.20;0.10;;;;;;;1.15;100.00;99936.19;5044274;28;20447;-49
2021/12/03 03:35:07;;;;;;;0.20;0.10;;;;;;;1.10;100.00;99935.31;5039537;28;20447;-49
2021/12/03 03:37:35;;;;;;;0.20;0.10;;;;;;;0.89;100.00;99940.44;5041911;28;20487;-49
2021/12/03 03:40:04;;;;;;;0.20;0.10;;;;;;;0.73;100.00;99941.22;5055557;28;20495;-49
2021/12/03 03:42:30;;;;;;;0.20;0.10;;;;;;;0.67;100.00;99942.03;5061079;28;20544;-49
2021/12/03 03:44:57;;;;;;;0.20;0.10;;;;;;;0.66;100.00;99947.28;5039902;28;20486;-49
2021/12/03 03:47:24;;;;;;;0.50;0.50;;;;;;;0.34;100.00;99954.91;5053867;28;20532;-49
2021/12/03 03:49:50;;;;;;;0.20;0.10;;;;;;;0.28;100.00;99953.16;5050877;28;20493;-49
2021/12/03 03:52:17;;;;;;;0.20;0.10;;;;;;;0.53;100.00;99955.03;5040622;28;20443;-49
2021/12/03 03:54:44;;;;;;;0.20;0.10;;;;;;;0.39;100.00;99959.31;5046352;28;20502;-49
2021/12/03 03:57:10;;;;;;;0.20;0.10;;;;;;;0.28;100.00;99950.53;5045223;28;20546;-49
2021/12/03 03:59:37;;;;;;;0.20;0.10;;;;;;;0.34;100.00;99957.53;5039476;28;20957;-49
2021/12/03 04:02:04;;;;;;;0.20;0.10;;;;;;;0.37;100.00;99947.97;5041376;28;20495;-49
2021/12/03 04:04:31;;;;;;;0.20;0.10;;;;;;;0.49;100.00;99957.63;5049122;28;20530;-49
2021/12/03 04:06:57;;;;;;;0.20;0.10;;;;;;;0.49;100.00;99958.50;5050160;28;20520;-49
2021/12/03 04:09:24;;;;;;;0.20;0.10;;;;;;;0.49;100.00;99957.63;5043715;28;20953;-49
2021/12/03 04:11:51;;;;;;;0.20;0.10;;;;;;;0.35;100.00;99961.91;5043894;28;20937;-49
2021/12/03 04:14:17;;;;;;;0.20;0.10;;;;;;;0.21;100.00;99956.56;5048532;28;20448;-49
2021/12/03 04:16:44;;;;;;;0.20;0.10;;;;;;;0.14;100.00;99957.41;5047228;28;20501;-49
2021/12/03 04:19:11;;;;;;;0.20;0.10;;;;;;;-0.08;100.00;99956.31;5047382;28;20451;-49
2021/12/03 04:21:38;;;;;;;0.20;0.20;;;;;;;-0.07;100.00;99961.56;5044215;28;20495;-49
2021/12/03 04:24:05;;;;;;;0.20;0.10;;;;;;;-0.11;100.00;99969.38;5048104;28;20478;-48
2021/12/03 04:26:32;;;;;;;0.20;0.10;;;;;;;-0.12;100.00;99971.09;5045463;28;20467;-50
2021/12/03 04:28:58;;;;;;;0.20;0.10;;;;;;;-0.11;100.00;99978.06;5039097;28;20556;-49
2021/12/03 04:31:28;;;;;;;0.20;0.10;;;;;;;-0.30;100.00;99971.78;5040287;28;20521;-49
2021/12/03 04:33:55;;;;;;;0.20;0.10;;;;;;;-0.40;100.00;99966.47;5049231;28;20455;-49
2021/12/03 04:36:22;;;;;;;0.20;0.10;;;;;;;-0.46;100.00;99969.88;5049256;28;20825;-49
2021/12/03 04:38:49;;;;;;;0.20;0.20;;;;;;;-0.39;100.00;99963.00;5043324;28;20934;-48
2021/12/03 04:41:16;;;;;;;0.20;0.10;;;;;;;-0.57;100.00;99968.00;5069108;28;20899;-49
2021/12/03 04:43:42;;;;;;;0.20;0.10;;;;;;;-0.57;100.00;99971.50;5047031;28;20447;-49
2021/12/03 04:46:09;;;;;;;0.20;0.10;;;;;;;-0.64;100.00;99973.19;5052347;28;20457;-49
2021/12/03 04:48:36;;;;;;;0.20;0.10;;;;;;;-0.66;100.00;99969.69;5053902;28;20454;-49
2021/12/03 04:51:03;;;;;;;0.20;0.10;;;;;;;-0.64;100.00;99972.31;5053620;28;20450;-49
2021/12/03 04:53:30;;;;;;;0.20;0.10;;;;;;;-0.79;100.00;99970.41;5044902;28;20455;-49
2021/12/03 04:55:57;;;;;;;2.07;1.87;;;;;;;-0.86;100.00;99978.13;5041791;28;20467;-49
2021/12/03 04:58:24;;;;;;;0.20;0.10;;;;;;;-0.98;100.00;99984.06;5046541;28;20447;-49
2021/12/03 05:00:56;;;;;;;0.20;0.10;;;;;;;-0.77;100.00;99983.47;5049293;28;20458;-48
2021/12/03 05:03:25;;;;;;;0.20;0.10;;;;;;;-0.81;100.00;99977.34;5046044;28;20486;-49
2021/12/03 05:05:55;;;;;;;0.67;0.63;;;;;;;-0.57;100.00;99983.66;5041935;28;20475;-49
2021/12/03 05:08:25;;;;;;;0.20;0.10;;;;;;;-0.92;100.00;99974.59;5044837;28;20466;-49
2021/12/03 05:10:53;;;;;;;0.20;0.10;;;;;;;-0.83;100.00;99968.59;5048663;28;20467;-49
2021/12/03 05:13:26;;;;;;;0.20;0.10;;;;;;;-0.92;100.00;99966.75;5029931;28;20443;-50
2021/12/03 05:15:54;;;;;;;0.20;0.10;;;;;;;-0.80;100.00;99966.03;5042093;28;20502;-50
2021/12/03 05:18:22;;;;;;;0.20;0.10;;;;;;;-0.78;100.00;99969.53;5046631;28;20957;-50
2021/12/03 05:20:53;;;;;;;0.20;0.10;;;;;;;-0.73;100.00;99966.97;5030433;28;20494;-50
2021/12/03 05:23:22;;;;;;;0.20;0.10;;;;;;;-0.92;100.00;99964.16;5048852;28;20513;-49
2021/12/03 05:25:49;;;;;;;0.20;0.10;;;;;;;-0.76;100.00;99964.34;5043176;28;20967;-50
2021/12/03 05:28:16;;;;;;;0.20;0.10;;;;;;;-0.78;100.00;99966.06;5042466;28;20991;-50
2021/12/03 05:30:47;;;;;;;0.20;0.10;;;;;;;-0.84;100.00;99963.34;5046958;28;20448;-50
2021/12/03 05:33:16;;;;;;;0.20;0.10;;;;;;;-0.36;100.00;99963.03;5049326;28;20469;-49
2021/12/03 05:35:43;;;;;;;0.20;0.10;;;;;;;-0.44;100.00;99960.31;5043677;28;20995;-50
2021/12/03 05:38:10;;;;;;;0.20;0.10;;;;;;;-0.40;100.00;99958.66;5065137;22;20498;-48
2021/12/03 05:40:36;;;;;;;0.20;0.10;;;;;;;-0.14;100.00;99967.56;5059927;28;20446;-48
2021/12/03 05:43:03;;;;;;;0.20;0.10;;;;;;;-0.17;100.00;99974.50;5054023;28;20528;-49
2021/12/03 05:45:33;;;;;;;0.20;0.10;;;;;;;-0.32;100.00;99965.69;5044229;28;20500;-49
2021/12/03 05:48:01;;;;;;;0.20;0.10;;;;;;;-0.39;100.00;99965.63;5050460;28;20582;-49
2021/12/03 05:50:28;;;;;;;0.20;0.10;;;;;;;-0.58;100.00;99972.34;5045047;28;20508;-48
2021/12/03 05:52:57;;;;;;;0.20;0.10;;;;;;;-0.74;100.00;99973.91;5040616;28;20484;-49
2021/12/03 05:55:24;;;;;;;0.20;0.10;;;;;;;-0.78;100.00;99971.28;5042603;28;20452;-49
2021/12/03 05:57:51;;;;;;;0.20;0.10;;;;;;;-0.64;100.00;99967.97;5046926;28;20502;-48
2021/12/03 06:00:26;;;;;;;0.20;0.10;;;;;;;-0.58;100.00;99972.34;5045713;28;20470;-49
2021/12/03 06:02:54;;;;;;;0.20;0.10;;;;;;;-0.60;100.00;99968.84;5039919;28;20494;-48
2021/12/03 06:05:22;;;;;;;0.50;0.50;;;;;;;-0.63;100.00;99961.88;5040318;28;20451;-50
2021/12/03 06:07:49;;;;;;;0.20;0.10;;;;;;;-0.31;100.00;99979.59;5027337;28;21013;-49
2021/12/03 06:10:17;;;;;;;0.20;0.10;;;;;;;-0.13;100.00;99994.59;5039947;28;20455;-49
2021/12/03 06:12:44;;;;;;;0.20;0.10;;;;;;;-0.19;100.00;99995.41;5045901;28;20447;-49
2021/12/03 06:15:11;;;;;;;0.20;0.20;;;;;;;-0.41;100.00;99990.81;5046437;28;20458;-50
2021/12/03 06:17:38;;;;;;;0.20;0.10;;;;;;;-0.31;100.00;100009.19;5041203;28;21049;-49
2021/12/03 06:20:05;;;;;;;0.20;0.10;;;;;;;-0.44;100.00;100009.06;5047570;28;20447;-50
2021/12/03 06:22:32;;;;;;;0.20;0.17;;;;;;;-0.52;100.00;100008.97;5041801;28;21024;-49
2021/12/03 06:25:00;;;;;;;0.20;0.10;;;;;;;-0.65;100.00;100014.91;5039972;28;20510;-49
2021/12/03 06:27:29;;;;;;;0.20;0.10;;;;;;;-0.94;100.00;100010.22;5044095;28;20472;-49
2021/12/03 06:29:57;;;;;;;0.20;0.10;;;;;;;-1.00;100.00;100004.03;5046531;28;20455;-49
2021/12/03 06:32:24;;;;;;;0.20;0.10;;;;;;;-0.94;100.00;100001.50;5043289;28;20447;-49
2021/12/03 06:34:52;;;;;;;0.20;0.10;;;;;;;-1.00;100.00;100004.03;5039689;28;20455;-49
2021/12/03 06:37:18;;;;;;;0.20;0.10;;;;;;;-0.98;100.00;100018.84;5043393;28;20541;-49
2021/12/03 06:39:45;;;;;;;0.20;0.10;;;;;;;-1.21;100.00;100013.31;5043389;28;20513;-49
2021/12/03 06:42:12;;;;;;;0.20;0.10;;;;;;;-1.22;100.00;100006.34;5052824;28;20536;-49
2021/12/03 06:44:38;;;;;;;0.20;0.10;;;;;;;-1.24;100.00;100015.00;5039186;28;20872;-49
2021/12/03 06:47:05;;;;;;;0.20;0.10;;;;;;;-1.21;100.00;100022.88;5052675;28;20532;-49
2021/12/03 06:49:33;;;;;;;0.20;0.10;;;;;;;-1.26;100.00;100020.19;5038978;28;20454;-49
2021/12/03 06:52:05;;;;;;;0.20;0.10;;;;;;;-1.22;100.00;100026.34;5042816;28;20494;-49
2021/12/03 06:54:34;;;;;;;0.20;0.10;;;;;;;-1.37;100.00;100020.88;5045664;28;20455;-49
2021/12/03 06:57:04;;;;;;;0.20;0.10;;;;;;;-1.23;100.00;100030.69;5043618;28;20874;-49
2021/12/03 06:59:31;;;;;;;0.20;0.10;;;;;;;-1.36;100.00;100033.09;5021881;28;21027;-49
2021/12/03 07:01:58;;;;;;;0.30;0.23;;;;;;;-1.44;100.00;100024.25;5040933;28;20527;-49
2021/12/03 07:04:25;;;;;;;0.20;0.10;;;;;;;-1.38;100.00;100034.75;5046050;28;20455;-49
2021/12/03 07:06:52;;;;;;;0.20;0.10;;;;;;;-1.14;100.00;100040.34;5044581;28;20979;-49
2021/12/03 07:09:19;;;;;;;0.20;0.10;;;;;;;-0.85;100.00;100045.09;5038945;28;20524;-48
2021/12/03 07:11:46;;;;;;;0.20;0.10;;;;;;;-0.91;100.00;100043.28;5040483;28;20448;-49
2021/12/03 07:14:13;;;;;;;0.20;0.10;;;;;;;-1.07;100.00;100042.19;5045800;28;20861;-49
2021/12/03 07:16:40;;;;;;;0.20;0.10;;;;;;;-0.94;100.00;100051.06;5045151;28;20829;-49
2021/12/03 07:19:07;;;;;;;0.20;0.10;;;;;;;-0.92;100.00;100052.84;5029994;28;20456;-49
2021/12/03 07:21:34;;;;;;;0.27;0.17;;;;;;;-0.85;100.00;100055.53;5034033;28;20448;-48
2021/12/03 07:24:01;;;;;;;0.20;0.10;;;;;;;-0.94;100.00;100057.16;5045625;28;20537;-49
2021/12/03 07:26:28;;;;;;;0.20;0.10;;;;;;;-0.93;100.00;100061.53;5045270;28;20470;-49
2021/12/03 07:28:57;;;;;;;0.20;0.10;;;;;;;-0.82;100.00;100059.06;5038842;28;20481;-49
2021/12/03 07:31:24;;;;;;;0.20;0.10;;;;;;;-0.80;100.00;100059.09;5038958;28;20503;-49
2021/12/03 07:33:56;;;;;;;0.20;0.10;;;;;;;-0.60;100.00;100055.84;5027507;28;20455;-49
2021/12/03 07:36:23;;;;;;;0.20;0.10;;;;;;;-0.53;100.00;100063.78;5038379;28;20468;-49
2021/12/03 07:38:50;;;;;;;0.20;0.10;;;;;;;-0.53;100.00;100071.63;5044230;28;20863;-49
2021/12/03 07:41:17;;;;;;;0.20;0.10;;;;;;;-0.41;100.00;100053.47;5047214;28;20485;-49
2021/12/03 07:43:45;;;;;;;0.20;0.10;;;;;;;-0.35;100.00;100059.66;5043124;28;20995;-49
2021/12/03 07:46:11;;;;;;;0.20;0.10;;;;;;;-0.19;100.00;100060.69;5047792;28;20939;-49
2021/12/03 07:48:38;;;;;;;0.20;0.10;;;;;;;-0.03;100.00;100056.50;5042958;28;20508;-49
2021/12/03 07:51:05;;;;;;;0.20;0.10;;;;;;;0.00;100.00;100064.38;5045080;28;20450;-49
2021/12/03 07:53:31;;;;;;;0.20;0.20;;;;;;;0.15;100.00;100056.69;5041286;28;20446;-50
2021/12/03 07:55:58;;;;;;;0.20;0.10;;;;;;;0.42;100.00;100055.19;5038557;28;20455;-50
2021/12/03 07:58:25;;;;;;;0.20;0.10;;;;;;;0.61;100.00;100054.47;5042809;28;20510;-49
2021/12/03 08:00:54;;;;;;;0.20;0.10;;;;;;;0.85;100.00;100059.00;5045287;28;20478;-50
2021/12/03 08:03:21;;;;;;;0.20;0.10;;;;;;;1.14;100.00;100060.06;5041855;28;20486;-49
2021/12/03 08:05:48;;;;;;;0.20;0.10;;;;;;;1.08;100.00;100056.53;5038749;28;20448;-49
2021/12/03 08:08:22;;;;;;;0.20;0.10;;;;;;;1.24;100.00;100063.63;5045336;28;20896;-49
2021/12/03 08:10:50;;;;;;;0.20;0.10;;;;;;;1.37;100.00;100057.56;5049036;28;20468;-49
2021/12/03 08:13:17;;;;;;;0.20;0.10;;;;;;;1.45;100.00;100066.31;5047714;28;20446;-49
2021/12/03 08:15:43;;;;;;;2.10;1.60;;;;;;;1.74;100.00;100060.31;5042227;28;20872;-49
2021/12/03 08:18:11;;;;;;;0.20;0.10;;;;;;;1.83;100.00;100067.34;5043547;28;20495;-49
2021/12/03 08:20:37;;;;;;;0.20;0.10;;;;;;;2.07;100.00;100063.03;5049264;28;20452;-50
2021/12/03 08:23:05;;;;;;;0.20;0.20;;;;;;;2.33;100.00;100063.09;5048005;28;20490;-50
2021/12/03 08:25:32;;;;;;;0.30;0.30;;;;;;;2.26;100.00;100071.81;5041833;28;20450;-50
2021/12/03 08:27:59;;;;;;;0.20;0.10;;;;;;;2.56;100.00;100073.56;5043259;28;20470;-50
2021/12/03 08:30:29;;;;;;;0.20;0.10;;;;;;;2.49;100.00;100074.47;5048614;28;20463;-49
2021/12/03 08:32:57;;;;;;;0.20;0.20;;;;;;;2.72;100.00;100073.56;5048733;28;20876;-49
2021/12/03 08:35:24;;;;;;;0.20;0.10;;;;;;;2.90;100.00;100077.06;5029116;28;20451;-50
2021/12/03 08:37:51;;;;;;;0.20;0.10;;;;;;;2.82;100.00;100073.56;5041839;28;20487;-49
2021/12/03 08:40:19;;;;;;;0.20;0.10;;;;;;;2.73;100.00;100067.44;5049243;28;20442;-49
2021/12/03 08:42:46;;;;;;;0.20;0.10;;;;;;;2.93;100.00;100055.19;5054261;28;20540;-49
2021/12/03 08:45:16;;;;;;;0.20;0.10;;;;;;;2.94;100.00;100060.44;5042832;28;20454;-50
2021/12/03 08:47:47;;;;;;;0.20;0.20;;;;;;;3.14;100.00;100067.38;5053461;28;21005;-50
2021/12/03 08:50:17;;;;;;;0.20;0.10;;;;;;;2.89;100.00;100051.69;5033151;28;20446;-50
2021/12/03 08:53:06;;;;;;;0.20;0.10;;;;;;;2.99;100.00;100055.16;5041827;28;20439;-49
2021/12/03 08:55:33;;;;;;;0.20;0.20;;;;;;;3.14;100.00;100054.25;5042479;28;20932;-49
2021/12/03 08:58:00;;;;;;;0.20;0.10;;;;;;;3.21;100.00;100051.63;5048631;28;20988;-50
2021/12/03 09:00:29;;;;;;;0.20;0.20;;;;;;;3.48;100.00;100053.28;5047960;28;20454;-49
2021/12/03 09:02:56;;;;;;;0.20;0.10;;;;;;;3.54;100.00;100053.25;5041371;28;21033;-50
2021/12/03 09:05:30;;;;;;;0.20;0.10;;;;;;;3.24;100.00;100046.34;5041326;28;20940;-50
2021/12/03 09:07:57;;;;;;;0.20;0.10;;;;;;;3.50;100.00;100043.63;5046726;28;20472;-49
2021/12/03 09:10:36;;;;;;;0.20;0.10;;;;;;;3.62;100.00;100052.34;5048168;28;20451;-50
2021/12/03 09:13:04;;;;;;;0.20;0.10;;;;;;;3.22;100.00;100053.38;5044968;28;20446;-50
2021/12/03 09:15:38;;;;;;;0.20;0.10;;;;;;;3.32;100.00;100043.72;5041362;28;20769;-50
2021/12/03 09:18:19;;;;;;;0.20;0.20;;;;;;;3.30;100.00;100049.88;5043129;28;20467;-50
2021/12/03 09:21:07;;;;;;;0.20;0.10;;;;;;;3.43;100.00;100048.94;5047388;28;20809;-50
2021/12/03 09:23:47;;;;;;;0.20;0.20;;;;;;;3.65;100.00;100041.81;5047958;28;20491;-50
2021/12/03 09:26:16;;;;;;;0.20;0.10;;;;;;;3.88;100.00;100049.59;5046071;28;20462;-49
2021/12/03 09:28:46;;;;;;;0.20;0.10;;;;;;;3.86;100.00;100047.88;5040742;28;20447;-50
2021/12/03 09:31:15;;;;;;;0.20;0.10;;;;;;;3.83;100.00;100054.88;5042458;28;20509;-50
2021/12/03 09:33:45;;;;;;;0.20;0.20;;;;;;;3.95;100.00;100052.19;5047673;28;20447;-50
2021/12/03 09:36:13;;;;;;;0.20;0.10;;;;;;;3.83;100.00;100055.75;5047909;28;20497;-50
2021/12/03 09:38:39;;;;;;;0.30;0.10;;;;;;;3.77;100.00;100063.66;5047782;28;20452;-50
2021/12/03 09:41:13;;;;;;;0.40;0.40;;;;;;;3.96;100.00;100053.91;5042157;28;20859;-49
2021/12/03 09:43:47;;;;;;;0.20;0.10;;;;;;;3.77;100.00;100062.78;5028231;28;20546;-50
2021/12/03 09:46:20;;;;;;;0.20;0.10;;;;;;;3.68;100.00;100047.06;5049873;28;20447;-49
2021/12/03 09:51:19;;;;;;;0.20;0.10;;;;;;;4.05;100.00;100055.63;5047448;28;20447;-50
2021/12/03 09:56:33;;;;;;;0.20;0.10;;;;;;;3.86;100.00;100066.25;5046671;28;20506;-50
2021/12/03 10:04:15;;;;;;;0.20;0.10;;;;;;;3.85;100.00;100061.88;5040456;28;20522;-50
2021/12/03 10:12:30;;;;;;;0.20;0.10;;;;;;;3.84;100.00;100060.16;5040229;28;20470;-50
2021/12/03 10:15:08;;;;;;;0.20;0.10;;;;;;;3.70;100.00;100061.97;5041267;28;20447;-50
2021/12/03 10:17:41;;;;;;;0.20;0.10;;;;;;;3.88;99.92;100044.34;5029244;28;20544;-50
2021/12/03 10:51:49;;;;;;;0.20;0.10;;;;;;;3.88;99.88;100007.53;5026757;28;20525;-49
2021/12/03 12:16:01;;;;;;;0.30;0.20;;;;;;;3.61;100.00;99940.25;5038985;28;20439;-50
2021/12/03 12:23:27;;;;;;;0.20;0.10;;;;;;;3.52;100.00;99939.41;5026397;28;20485;-50
2021/12/03 12:33:52;;;;;;;0.30;0.20;;;;;;;3.62;100.00;99932.34;5040486;28;21010;-50
2021/12/03 13:20:13;;;;;;;0.20;0.10;;;;;;;3.68;100.00;99882.34;5036984;28;20454;-50
2021/12/03 13:57:36;;;;;;;0.20;0.10;;;;;;;3.86;100.00;99815.66;5040723;28;20961;-49
2021/12/03 14:38:12;;;;;;;0.20;0.20;;;;;;;3.83;99.21;99774.47;5040892;28;20879;-49
2021/12/03 14:43:34;;;;;;;0.20;0.10;;;;;;;3.77;99.30;99771.91;5047225;28;20490;-49
2021/12/03 14:57:28;;;;;;;0.20;0.10;;;;;;;3.77;99.35;99773.66;5044865;28;20470;-50
2021/12/03 15:14:47;;;;;;;0.30;0.30;;;;;;;3.78;99.58;99764.91;5039456;28;20529;-49
2021/12/03 15:25:06;;;;;;;0.20;0.20;;;;;;;3.62;100.00;99758.03;5038969;28;20495;-49
2021/12/03 15:32:34;;;;;;;0.20;0.10;;;;;;;3.52;100.00;99739.72;5032528;28;20447;-49
2021/12/03 15:35:22;;;;;;;0.20;0.20;;;;;;;3.52;100.00;99734.47;5045733;28;20442;-49
2021/12/03 15:40:53;;;;;;;0.20;0.10;;;;;;;3.68;99.87;99732.56;5037727;28;20447;-48
2021/12/03 16:04:53;;;;;;;0.40;0.40;;;;;;;3.69;100.00;99710.66;5029631;28;20536;-49
2021/12/03 16:07:42;;;;;;;0.20;0.10;;;;;;;3.63;100.00;99705.47;5038667;28;20537;-49
2021/12/03 16:10:16;;;;;;;0.20;0.10;;;;;;;3.68;99.87;99701.03;5040092;28;20506;-49
2021/12/03 16:12:54;;;;;;;0.20;0.10;;;;;;;3.80;99.77;99703.53;5026290;28;20454;-49
2021/12/03 16:15:52;;;;;;;0.20;0.10;;;;;;;3.78;99.54;99715.81;5038418;28;20505;-48
2021/12/03 16:21:13;;;;;;;0.20;0.10;;;;;;;3.62;100.00;99700.25;5045075;28;20996;-49
2021/12/03 16:24:01;;;;;;;0.20;0.10;;;;;;;3.76;99.92;99679.94;5045106;28;20503;-50
2021/12/03 16:54:09;;;;;;;0.20;0.10;;;;;;;3.86;99.11;99656.16;5048824;28;20524;-49
2021/12/03 16:56:42;;;;;;;0.20;0.10;;;;;;;4.02;99.09;99659.47;5043095;28;20462;-49
2021/12/03 16:59:09;;;;;;;0.20;0.10;;;;;;;3.87;99.57;99654.41;5041730;28;20452;-48
2021/12/03 17:17:47;;;;;;;0.20;0.10;;;;;;;4.02;99.58;99655.97;5047855;28;20869;-48
2021/12/03 17:21:39;;;;;;;0.20;0.10;;;;;;;3.97;99.34;99652.50;5047755;28;20454;-48
2021/12/03 17:58:29;;;;;;;0.20;0.10;;;;;;;4.01;99.38;99588.50;4979173;28;20554;-50
2021/12/03 18:03:47;;;;;;;0.20;0.10;;;;;;;4.22;97.81;99588.19;4977095;28;20506;-51
2021/12/03 18:12:12;;;;;;;0.20;0.20;;;;;;;4.21;97.81;99572.44;4966788;28;20451;-51
2021/12/03 18:58:01;;;;;;;0.20;0.20;;;;;;;4.38;97.78;99507.28;4956502;28;20475;-50
2021/12/03 19:00:31;;;;;;;0.20;0.20;;;;;;;4.37;97.10;99509.03;4967273;28;20826;-51
2021/12/03 19:03:01;;;;;;;0.20;0.10;;;;;;;4.31;96.92;99493.38;4975282;28;20513;-50
2021/12/03 19:05:43;;;;;;;0.20;0.10;;;;;;;4.46;97.42;99485.22;4975159;28;20486;-51
2021/12/03 19:08:14;;;;;;;0.20;0.10;;;;;;;4.48;96.87;99479.94;4964994;28;20471;-50
2021/12/03 19:10:46;;;;;;;0.20;0.10;;;;;;;4.51;96.38;99481.63;4971144;28;20459;-50
2021/12/03 19:13:20;;;;;;;0.20;0.10;;;;;;;4.45;96.77;99474.72;4963904;28;20452;-50
2021/12/03 19:15:49;;;;;;;0.20;0.10;;;;;;;4.30;97.48;99480.25;4973249;28;20944;-51